Terminal Aerodrome Forecast
Issued by NWS

Home | Current Version | Previous Version | Text Only | Print | Product List | Glossary On
Versions: 1 2 3 4 5 6 7 8 9 10 11 12 13 14
000
FTUS43 KEAX 010500
TAFSTJ
TAF
KSTJ 010528Z 0106/0206 VRB04KT 1 1/2SM -SN BR OVC006
     FM011500 35021G31KT 4SM -SN OVC020
     FM020000 35015KT P6SM BKN035=

USA.gov is the U.S. government's official web portal to all federal, state and local government web resources and services.